sensor_id;sensor_type;location;lat;lon;timestamp;pressure;altitude;pressure_sealevel;temperature;humidity
60918;BME280;46792;38.854;-9.384;2022-11-13T00:01:17;99658.66;;;14.53;92.67
60918;BME280;46792;38.854;-9.384;2022-11-13T00:03:37;99663.25;;;14.52;92.73
60918;BME280;46792;38.854;-9.384;2022-11-13T00:06:00;99654.59;;;14.50;92.66
60918;BME280;46792;38.854;-9.384;2022-11-13T00:08:20;99660.31;;;14.49;92.70
60918;BME280;46792;38.854;-9.384;2022-11-13T00:10:39;99659.22;;;14.50;92.61
60918;BME280;46792;38.854;-9.384;2022-11-13T00:12:58;99649.50;;;14.43;92.75
60918;BME280;46792;38.854;-9.384;2022-11-13T00:15:17;99652.78;;;14.40;92.55
60918;BME280;46792;38.854;-9.384;2022-11-13T00:17:36;99641.94;;;14.40;93.18
60918;BME280;46792;38.854;-9.384;2022-11-13T00:19:55;99651.06;;;14.50;93.06
60918;BME280;46792;38.854;-9.384;2022-11-13T00:22:13;99643.13;;;14.53;93.12
60918;BME280;46792;38.854;-9.384;2022-11-13T00:24:36;99647.22;;;14.56;92.81
60918;BME280;46792;38.854;-9.384;2022-11-13T00:26:55;99645.00;;;14.58;92.67
60918;BME280;46792;38.854;-9.384;2022-11-13T00:29:14;99645.25;;;14.62;92.74
60918;BME280;46792;38.854;-9.384;2022-11-13T00:34:21;99632.97;;;14.69;92.47
60918;BME280;46792;38.854;-9.384;2022-11-13T00:36:40;99637.81;;;14.72;91.93
60918;BME280;46792;38.854;-9.384;2022-11-13T00:38:59;99637.00;;;14.72;92.04
60918;BME280;46792;38.854;-9.384;2022-11-13T00:41:19;99630.47;;;14.73;91.69
60918;BME280;46792;38.854;-9.384;2022-11-13T00:43:40;99635.91;;;14.73;91.49
60918;BME280;46792;38.854;-9.384;2022-11-13T00:46:00;99635.31;;;14.76;91.29
60918;BME280;46792;38.854;-9.384;2022-11-13T00:48:19;99627.22;;;14.71;90.48
60918;BME280;46792;38.854;-9.384;2022-11-13T00:50:39;99624.81;;;14.64;90.22
60918;BME280;46792;38.854;-9.384;2022-11-13T00:52:59;99632.19;;;14.64;90.39
60918;BME280;46792;38.854;-9.384;2022-11-13T00:55:18;99634.06;;;14.63;89.90
60918;BME280;46792;38.854;-9.384;2022-11-13T00:57:37;99628.94;;;14.62;89.87
60918;BME280;46792;38.854;-9.384;2022-11-13T00:59:56;99629.50;;;14.58;89.63
60918;BME280;46792;38.854;-9.384;2022-11-13T01:02:15;99634.06;;;14.63;89.64
60918;BME280;46792;38.854;-9.384;2022-11-13T01:04:34;99634.41;;;14.56;89.85
60918;BME280;46792;38.854;-9.384;2022-11-13T01:06:53;99636.59;;;14.54;89.81
60918;BME280;46792;38.854;-9.384;2022-11-13T01:09:13;99631.53;;;14.48;89.73
60918;BME280;46792;38.854;-9.384;2022-11-13T01:11:32;99629.63;;;14.48;89.66
60918;BME280;46792;38.854;-9.384;2022-11-13T01:13:52;99629.97;;;14.41;89.61
60918;BME280;46792;38.854;-9.384;2022-11-13T01:16:13;99623.53;;;14.32;89.91
60918;BME280;46792;38.854;-9.384;2022-11-13T01:21:22;99626.81;;;14.29;90.51
60918;BME280;46792;38.854;-9.384;2022-11-13T01:23:42;99615.47;;;14.27;90.91
60918;BME280;46792;38.854;-9.384;2022-11-13T01:26:22;99617.06;;;14.28;91.08
60918;BME280;46792;38.854;-9.384;2022-11-13T01:31:40;99615.72;;;14.25;91.26
60918;BME280;46792;38.854;-9.384;2022-11-13T01:33:59;99627.97;;;14.23;91.17
60918;BME280;46792;38.854;-9.384;2022-11-13T01:36:24;99633.41;;;14.23;91.26
60918;BME280;46792;38.854;-9.384;2022-11-13T01:38:44;99633.69;;;14.21;91.47
60918;BME280;46792;38.854;-9.384;2022-11-13T01:41:04;99629.34;;;14.20;91.45
60918;BME280;46792;38.854;-9.384;2022-11-13T01:43:32;99625.59;;;14.16;91.92
60918;BME280;46792;38.854;-9.384;2022-11-13T01:48:36;99626.19;;;14.08;91.87
60918;BME280;46792;38.854;-9.384;2022-11-13T01:50:57;99624.34;;;14.03;92.17
60918;BME280;46792;38.854;-9.384;2022-11-13T01:53:16;99630.34;;;14.00;92.19
60918;BME280;46792;38.854;-9.384;2022-11-13T01:55:35;99628.50;;;13.95;92.83
60918;BME280;46792;38.854;-9.384;2022-11-13T01:57:55;99626.88;;;13.94;93.31
60918;BME280;46792;38.854;-9.384;2022-11-13T02:00:15;99632.25;;;13.99;93.78
60918;BME280;46792;38.854;-9.384;2022-11-13T02:02:35;99632.25;;;13.99;94.52
60918;BME280;46792;38.854;-9.384;2022-11-13T02:04:54;99632.19;;;14.05;94.98
60918;BME280;46792;38.854;-9.384;2022-11-13T02:12:50;99625.50;;;14.26;96.07
60918;BME280;46792;38.854;-9.384;2022-11-13T02:15:28;99619.72;;;14.33;97.02
60918;BME280;46792;38.854;-9.384;2022-11-13T02:17:57;99625.38;;;14.37;96.97
60918;BME280;46792;38.854;-9.384;2022-11-13T02:20:34;99630.03;;;14.36;97.40
60918;BME280;46792;38.854;-9.384;2022-11-13T02:26:01;99624.28;;;14.38;98.62
60918;BME280;46792;38.854;-9.384;2022-11-13T02:28:21;99619.47;;;14.35;99.02
60918;BME280;46792;38.854;-9.384;2022-11-13T02:30:40;99625.69;;;14.35;99.50
60918;BME280;46792;38.854;-9.384;2022-11-13T02:33:00;99618.63;;;14.34;99.96
60918;BME280;46792;38.854;-9.384;2022-11-13T02:35:23;99603.97;;;14.35;100.00
60918;BME280;46792;38.854;-9.384;2022-11-13T02:37:43;99625.69;;;14.35;100.00
60918;BME280;46792;38.854;-9.384;2022-11-13T02:45:52;99627.59;;;14.35;100.00
60918;BME280;46792;38.854;-9.384;2022-11-13T02:48:11;99622.97;;;14.35;100.00
60918;BME280;46792;38.854;-9.384;2022-11-13T02:50:31;99617.84;;;14.34;100.00
60918;BME280;46792;38.854;-9.384;2022-11-13T02:53:09;99628.44;;;14.30;100.00
60918;BME280;46792;38.854;-9.384;2022-11-13T02:55:28;99628.44;;;14.30;100.00
60918;BME280;46792;38.854;-9.384;2022-11-13T02:57:48;99624.34;;;14.33;100.00
60918;BME280;46792;38.854;-9.384;2022-11-13T03:00:08;99614.25;;;14.38;100.00
60918;BME280;46792;38.854;-9.384;2022-11-13T03:02:27;99605.47;;;14.47;100.00
60918;BME280;46792;38.854;-9.384;2022-11-13T03:04:48;99611.59;;;14.57;100.00
60918;BME280;46792;38.854;-9.384;2022-11-13T03:07:07;99604.72;;;14.65;100.00
60918;BME280;46792;38.854;-9.384;2022-11-13T03:09:45;99602.25;;;14.69;100.00
60918;BME280;46792;38.854;-9.384;2022-11-13T03:12:10;99603.88;;;14.70;100.00
60918;BME280;46792;38.854;-9.384;2022-11-13T03:14:31;99605.97;;;14.78;100.00
60918;BME280;46792;38.854;-9.384;2022-11-13T03:16:50;99596.13;;;14.82;100.00
60918;BME280;46792;38.854;-9.384;2022-11-13T03:19:09;99596.94;;;14.83;100.00
60918;BME280;46792;38.854;-9.384;2022-11-13T03:21:29;99600.97;;;14.85;100.00
60918;BME280;46792;38.854;-9.384;2022-11-13T03:23:49;99600.59;;;14.92;100.00
60918;BME280;46792;38.854;-9.384;2022-11-13T03:26:10;99605.81;;;14.88;100.00
60918;BME280;46792;38.854;-9.384;2022-11-13T03:28:30;99594.44;;;14.86;100.00
60918;BME280;46792;38.854;-9.384;2022-11-13T03:30:49;99596.28;;;14.91;100.00
60918;BME280;46792;38.854;-9.384;2022-11-13T03:33:08;99589.41;;;14.99;100.00
60918;BME280;46792;38.854;-9.384;2022-11-13T03:35:27;99587.13;;;15.06;100.00
60918;BME280;46792;38.854;-9.384;2022-11-13T03:37:46;99580.88;;;15.05;100.00
60918;BME280;46792;38.854;-9.384;2022-11-13T03:40:06;99576.19;;;15.11;100.00
60918;BME280;46792;38.854;-9.384;2022-11-13T03:42:26;99585.94;;;15.12;100.00
60918;BME280;46792;38.854;-9.384;2022-11-13T03:44:47;99584.34;;;15.11;100.00
60918;BME280;46792;38.854;-9.384;2022-11-13T03:47:06;99587.78;;;15.17;100.00
60918;BME280;46792;38.854;-9.384;2022-11-13T03:49:25;99578.22;;;15.19;100.00
60918;BME280;46792;38.854;-9.384;2022-11-13T03:51:48;99576.53;;;15.24;100.00
60918;BME280;46792;38.854;-9.384;2022-11-13T03:54:07;99577.56;;;15.28;100.00
60918;BME280;46792;38.854;-9.384;2022-11-13T03:56:47;99574.41;;;15.20;100.00
60918;BME280;46792;38.854;-9.384;2022-11-13T03:59:28;99573.31;;;15.21;100.00
60918;BME280;46792;38.854;-9.384;2022-11-13T04:01:47;99572.78;;;15.19;100.00
60918;BME280;46792;38.854;-9.384;2022-11-13T04:04:07;99567.94;;;15.16;100.00
60918;BME280;46792;38.854;-9.384;2022-11-13T04:06:26;99570.50;;;15.27;100.00
60918;BME280;46792;38.854;-9.384;2022-11-13T04:08:45;99570.00;;;15.25;100.00
60918;BME280;46792;38.854;-9.384;2022-11-13T04:11:08;99559.44;;;15.23;100.00
60918;BME280;46792;38.854;-9.384;2022-11-13T04:13:27;99559.06;;;15.30;100.00
60918;BME280;46792;38.854;-9.384;2022-11-13T04:15:46;99560.44;;;15.27;100.00
60918;BME280;46792;38.854;-9.384;2022-11-13T04:18:05;99560.38;;;15.32;100.00
60918;BME280;46792;38.854;-9.384;2022-11-13T04:23:02;99562.50;;;15.16;100.00
60918;BME280;46792;38.854;-9.384;2022-11-13T04:25:25;99559.66;;;15.08;100.00
60918;BME280;46792;38.854;-9.384;2022-11-13T04:27:44;99562.78;;;14.96;100.00
60918;BME280;46792;38.854;-9.384;2022-11-13T04:30:06;99563.38;;;14.93;100.00
60918;BME280;46792;38.854;-9.384;2022-11-13T04:32:27;99567.41;;;14.95;100.00
60918;BME280;46792;38.854;-9.384;2022-11-13T04:34:46;99565.06;;;14.88;100.00
60918;BME280;46792;38.854;-9.384;2022-11-13T04:37:05;99557.47;;;14.85;100.00
60918;BME280;46792;38.854;-9.384;2022-11-13T04:39:24;99561.38;;;14.79;100.00
60918;BME280;46792;38.854;-9.384;2022-11-13T04:41:43;99571.44;;;14.79;100.00
60918;BME280;46792;38.854;-9.384;2022-11-13T04:44:21;99569.53;;;14.79;100.00
60918;BME280;46792;38.854;-9.384;2022-11-13T04:46:42;99562.91;;;14.85;100.00
60918;BME280;46792;38.854;-9.384;2022-11-13T04:49:04;99556.91;;;14.88;100.00
60918;BME280;46792;38.854;-9.384;2022-11-13T04:51:23;99555.81;;;14.89;100.00
60918;BME280;46792;38.854;-9.384;2022-11-13T04:53:45;99552.13;;;14.80;100.00
60918;BME280;46792;38.854;-9.384;2022-11-13T04:56:04;99553.50;;;14.78;100.00
60918;BME280;46792;38.854;-9.384;2022-11-13T04:58:26;99554.28;;;14.83;100.00
60918;BME280;46792;38.854;-9.384;2022-11-13T05:00:45;99545.13;;;14.74;100.00
60918;BME280;46792;38.854;-9.384;2022-11-13T05:03:04;99551.03;;;14.81;100.00
60918;BME280;46792;38.854;-9.384;2022-11-13T05:08:45;99559.09;;;14.86;100.00
60918;BME280;46792;38.854;-9.384;2022-11-13T05:11:06;99563.44;;;14.87;100.00
60918;BME280;46792;38.854;-9.384;2022-11-13T05:13:32;99557.94;;;14.93;100.00
60918;BME280;46792;38.854;-9.384;2022-11-13T05:16:02;99560.44;;;14.89;100.00
60918;BME280;46792;38.854;-9.384;2022-11-13T05:18:24;99561.69;;;14.97;100.00
60918;BME280;46792;38.854;-9.384;2022-11-13T05:20:43;99562.78;;;14.96;100.00
60918;BME280;46792;38.854;-9.384;2022-11-13T05:23:04;99555.97;;;14.98;100.00
60918;BME280;46792;38.854;-9.384;2022-11-13T05:25:26;99558.41;;;15.00;100.00
60918;BME280;46792;38.854;-9.384;2022-11-13T05:27:45;99551.56;;;15.02;100.00
60918;BME280;46792;38.854;-9.384;2022-11-13T05:30:05;99549.94;;;15.01;100.00
60918;BME280;46792;38.854;-9.384;2022-11-13T05:32:24;99555.38;;;15.01;100.00
60918;BME280;46792;38.854;-9.384;2022-11-13T05:34:43;99554.78;;;15.04;100.00
60918;BME280;46792;38.854;-9.384;2022-11-13T05:37:02;99549.13;;;15.01;100.00
60918;BME280;46792;38.854;-9.384;2022-11-13T05:39:23;99550.72;;;15.02;100.00
60918;BME280;46792;38.854;-9.384;2022-11-13T05:41:43;99553.97;;;15.04;100.00
60918;BME280;46792;38.854;-9.384;2022-11-13T05:44:03;99563.00;;;14.99;100.00
60918;BME280;46792;38.854;-9.384;2022-11-13T05:49:19;99560.59;;;14.98;100.00
60918;BME280;46792;38.854;-9.384;2022-11-13T05:51:41;99555.69;;;15.00;100.00
60918;BME280;46792;38.854;-9.384;2022-11-13T05:54:00;99559.25;;;14.95;100.00
60918;BME280;46792;38.854;-9.384;2022-11-13T05:56:29;99554.41;;;14.92;100.00
60918;BME280;46792;38.854;-9.384;2022-11-13T05:58:50;99549.84;;;14.87;100.00
60918;BME280;46792;38.854;-9.384;2022-11-13T06:01:18;99559.63;;;14.88;100.00
60918;BME280;46792;38.854;-9.384;2022-11-13T06:03:37;99561.03;;;14.86;100.00
60918;BME280;46792;38.854;-9.384;2022-11-13T06:05:57;99560.97;;;14.91;100.00
60918;BME280;46792;38.854;-9.384;2022-11-13T06:11:50;99570.94;;;14.96;100.00
60918;BME280;46792;38.854;-9.384;2022-11-13T06:14:09;99568.16;;;15.01;100.00
60918;BME280;46792;38.854;-9.384;2022-11-13T06:16:33;99574.09;;;15.03;100.00
60918;BME280;46792;38.854;-9.384;2022-11-13T06:18:58;99569.84;;;14.97;100.00
60918;BME280;46792;38.854;-9.384;2022-11-13T06:21:22;99576.13;;;14.92;100.00
60918;BME280;46792;38.854;-9.384;2022-11-13T06:23:42;99575.66;;;14.90;100.00
60918;BME280;46792;38.854;-9.384;2022-11-13T06:26:02;99577.53;;;14.89;100.00
60918;BME280;46792;38.854;-9.384;2022-11-13T06:31:23;99579.00;;;14.82;100.00
60918;BME280;46792;38.854;-9.384;2022-11-13T06:33:43;99577.03;;;14.87;100.00
60918;BME280;46792;38.854;-9.384;2022-11-13T06:36:04;99581.09;;;14.90;100.00
60918;BME280;46792;38.854;-9.384;2022-11-13T06:38:23;99583.88;;;14.85;100.00
60918;BME280;46792;38.854;-9.384;2022-11-13T06:41:01;99581.66;;;14.87;100.00
60918;BME280;46792;38.854;-9.384;2022-11-13T06:43:21;99588.47;;;14.84;100.00
60918;BME280;46792;38.854;-9.384;2022-11-13T06:45:40;99585.63;;;14.95;100.00
60918;BME280;46792;38.854;-9.384;2022-11-13T06:47:59;99584.59;;;14.90;100.00
60918;BME280;46792;38.854;-9.384;2022-11-13T06:50:37;99582.41;;;14.93;100.00
60918;BME280;46792;38.854;-9.384;2022-11-13T06:52:56;99590.56;;;14.93;100.00
60918;BME280;46792;38.854;-9.384;2022-11-13T06:55:15;99591.34;;;14.93;100.00
60918;BME280;46792;38.854;-9.384;2022-11-13T06:57:53;99592.19;;;14.94;100.00
60918;BME280;46792;38.854;-9.384;2022-11-13T07:00:13;99590.50;;;14.98;100.00
60918;BME280;46792;38.854;-9.384;2022-11-13T07:02:32;99590.56;;;14.93;100.00
60918;BME280;46792;38.854;-9.384;2022-11-13T07:04:51;99594.91;;;14.94;100.00
60918;BME280;46792;38.854;-9.384;2022-11-13T07:07:10;99597.09;;;14.92;100.00
60918;BME280;46792;38.854;-9.384;2022-11-13T07:09:30;99601.66;;;14.96;100.00
60918;BME280;46792;38.854;-9.384;2022-11-13T07:11:49;99609.53;;;14.98;100.00
60918;BME280;46792;38.854;-9.384;2022-11-13T07:14:10;99616.13;;;14.92;100.00
60918;BME280;46792;38.854;-9.384;2022-11-13T07:16:30;99615.03;;;14.93;100.00
60918;BME280;46792;38.854;-9.384;2022-11-13T07:18:53;99615.91;;;14.88;100.00
60918;BME280;46792;38.854;-9.384;2022-11-13T07:21:12;99616.69;;;14.88;100.00
60918;BME280;46792;38.854;-9.384;2022-11-13T07:23:32;99619.19;;;14.85;100.00
60918;BME280;46792;38.854;-9.384;2022-11-13T07:25:52;99613.44;;;14.86;100.00
60918;BME280;46792;38.854;-9.384;2022-11-13T07:31:12;99616.00;;;14.78;100.00
60918;BME280;46792;38.854;-9.384;2022-11-13T07:33:32;99622.53;;;14.77;100.00
60918;BME280;46792;38.854;-9.384;2022-11-13T07:35:55;99619.59;;;14.73;100.00
60918;BME280;46792;38.854;-9.384;2022-11-13T07:40:52;99610.88;;;14.76;100.00
60918;BME280;46792;38.854;-9.384;2022-11-13T07:43:11;99612.53;;;14.72;100.00
60918;BME280;46792;38.854;-9.384;2022-11-13T07:45:30;99607.28;;;14.81;100.00
60918;BME280;46792;38.854;-9.384;2022-11-13T07:50:46;99620.06;;;14.80;100.00
60918;BME280;46792;38.854;-9.384;2022-11-13T07:53:09;99623.22;;;14.87;100.00
60918;BME280;46792;38.854;-9.384;2022-11-13T07:55:28;99622.34;;;14.92;100.00
60918;BME280;46792;38.854;-9.384;2022-11-13T07:57:48;99627.47;;;14.99;100.00
60918;BME280;46792;38.854;-9.384;2022-11-13T08:06:04;99636.31;;;15.29;100.00
60918;BME280;46792;38.854;-9.384;2022-11-13T08:08:24;99644.53;;;15.24;100.00
60918;BME280;46792;38.854;-9.384;2022-11-13T08:10:43;99642.09;;;15.22;100.00
60918;BME280;46792;38.854;-9.384;2022-11-13T08:13:04;99648.28;;;15.28;100.00
60918;BME280;46792;38.854;-9.384;2022-11-13T08:15:23;99645.31;;;15.24;100.00
60918;BME280;46792;38.854;-9.384;2022-11-13T08:17:42;99639.59;;;15.26;100.00
60918;BME280;46792;38.854;-9.384;2022-11-13T08:20:01;99649.66;;;15.25;100.00
60918;BME280;46792;38.854;-9.384;2022-11-13T08:22:21;99653.00;;;15.22;100.00
60918;BME280;46792;38.854;-9.384;2022-11-13T08:25:00;99645.09;;;15.20;100.00
60918;BME280;46792;38.854;-9.384;2022-11-13T08:27:20;99648.41;;;15.17;100.00
60918;BME280;46792;38.854;-9.384;2022-11-13T08:29:42;99631.59;;;15.15;100.00
60918;BME280;46792;38.854;-9.384;2022-11-13T08:32:02;99648.91;;;15.19;100.00
60918;BME280;46792;38.854;-9.384;2022-11-13T08:34:21;99652.69;;;15.24;100.00
60918;BME280;46792;38.854;-9.384;2022-11-13T08:42:50;99649.38;;;15.27;100.00
60918;BME280;46792;38.854;-9.384;2022-11-13T08:45:10;99648.44;;;15.36;100.00
60918;BME280;46792;38.854;-9.384;2022-11-13T08:47:29;99652.16;;;15.41;100.00
60918;BME280;46792;38.854;-9.384;2022-11-13T08:49:48;99652.47;;;15.39;100.00
60918;BME280;46792;38.854;-9.384;2022-11-13T08:52:10;99630.34;;;15.27;100.00
60918;BME280;46792;38.854;-9.384;2022-11-13T08:54:29;99643.00;;;15.36;100.00
60918;BME280;46792;38.854;-9.384;2022-11-13T08:57:03;99649.09;;;15.47;100.00
60918;BME280;46792;38.854;-9.384;2022-11-13T08:59:22;99655.03;;;15.49;100.00
60918;BME280;46792;38.854;-9.384;2022-11-13T09:01:41;99653.66;;;15.52;100.00
60918;BME280;46792;38.854;-9.384;2022-11-13T09:04:00;99653.56;;;15.57;100.00
60918;BME280;46792;38.854;-9.384;2022-11-13T09:06:20;99654.81;;;15.65;100.00
60918;BME280;46792;38.854;-9.384;2022-11-13T09:08:39;99659.69;;;15.68;100.00
60918;BME280;46792;38.854;-9.384;2022-11-13T09:11:03;99659.69;;;15.68;100.00
60918;BME280;46792;38.854;-9.384;2022-11-13T09:13:22;99662.13;;;15.70;100.00
60918;BME280;46792;38.854;-9.384;2022-11-13T09:15:41;99659.41;;;15.70;100.00
60918;BME280;46792;38.854;-9.384;2022-11-13T09:18:19;99665.56;;;15.75;100.00
60918;BME280;46792;38.854;-9.384;2022-11-13T09:21:01;99663.59;;;15.62;100.00
60918;BME280;46792;38.854;-9.384;2022-11-13T09:26:12;99672.34;;;15.59;100.00
60918;BME280;46792;38.854;-9.384;2022-11-13T09:28:31;99676.00;;;15.68;100.00
60918;BME280;46792;38.854;-9.384;2022-11-13T09:30:50;99676.81;;;15.69;100.00
60918;BME280;46792;38.854;-9.384;2022-11-13T09:33:09;99673.28;;;15.68;100.00
60918;BME280;46792;38.854;-9.384;2022-11-13T09:35:35;99665.84;;;15.74;100.00
60918;BME280;46792;38.854;-9.384;2022-11-13T09:37:54;99673.41;;;15.77;100.00
60918;BME280;46792;38.854;-9.384;2022-11-13T09:40:22;99677.94;;;15.87;100.00
60918;BME280;46792;38.854;-9.384;2022-11-13T09:42:46;99674.31;;;15.91;100.00
60918;BME280;46792;38.854;-9.384;2022-11-13T09:45:09;99674.75;;;15.99;100.00
60918;BME280;46792;38.854;-9.384;2022-11-13T09:47:34;99678.34;;;16.13;100.00
60918;BME280;46792;38.854;-9.384;2022-11-13T09:50:02;99686.19;;;16.15;100.00
60918;BME280;46792;38.854;-9.384;2022-11-13T09:52:31;99690.38;;;16.26;100.00
60918;BME280;46792;38.854;-9.384;2022-11-13T09:54:52;99681.13;;;16.27;100.00
60918;BME280;46792;38.854;-9.384;2022-11-13T10:00:05;99686.25;;;16.29;100.00
60918;BME280;46792;38.854;-9.384;2022-11-13T10:05:23;99688.06;;;16.33;100.00
60918;BME280;46792;38.854;-9.384;2022-11-13T10:07:53;99689.19;;;16.32;100.00
60918;BME280;46792;38.854;-9.384;2022-11-13T10:12:53;99683.34;;;16.39;100.00
60918;BME280;46792;38.854;-9.384;2022-11-13T10:15:15;99673.16;;;16.45;100.00
60918;BME280;46792;38.854;-9.384;2022-11-13T10:20:02;99680.56;;;16.58;100.00
60918;BME280;46792;38.854;-9.384;2022-11-13T10:22:29;99675.72;;;16.69;100.00
60918;BME280;46792;38.854;-9.384;2022-11-13T10:24:51;99677.97;;;16.67;100.00
60918;BME280;46792;38.854;-9.384;2022-11-13T10:27:13;99680.59;;;16.86;100.00
60918;BME280;46792;38.854;-9.384;2022-11-13T10:29:36;99679.66;;;16.91;100.00
60918;BME280;46792;38.854;-9.384;2022-11-13T10:31:56;99675.78;;;16.97;100.00
60918;BME280;46792;38.854;-9.384;2022-11-13T10:34:17;99677.78;;;17.05;100.00
60918;BME280;46792;38.854;-9.384;2022-11-13T10:36:39;99679.41;;;17.06;100.00
60918;BME280;46792;38.854;-9.384;2022-11-13T10:39:06;99676.38;;;17.08;100.00
60918;BME280;46792;38.854;-9.384;2022-11-13T10:41:25;99674.53;;;17.03;100.00
60918;BME280;46792;38.854;-9.384;2022-11-13T10:43:53;99671.63;;;16.99;100.00
60918;BME280;46792;38.854;-9.384;2022-11-13T10:46:21;99671.03;;;17.02;100.00
60918;BME280;46792;38.854;-9.384;2022-11-13T10:48:41;99664.13;;;17.05;100.00
60918;BME280;46792;38.854;-9.384;2022-11-13T10:51:03;99666.34;;;17.03;100.00
60918;BME280;46792;38.854;-9.384;2022-11-13T10:53:24;99671.13;;;17.11;100.00
60918;BME280;46792;38.854;-9.384;2022-11-13T10:55:45;99674.72;;;17.21;100.00
60918;BME280;46792;38.854;-9.384;2022-11-13T10:58:17;99672.69;;;17.26;100.00
60918;BME280;46792;38.854;-9.384;2022-11-13T11:00:42;99676.06;;;17.23;100.00
60918;BME280;46792;38.854;-9.384;2022-11-13T11:03:12;99682.91;;;17.21;100.00
60918;BME280;46792;38.854;-9.384;2022-11-13T11:05:32;99672.09;;;17.29;100.00
60918;BME280;46792;38.854;-9.384;2022-11-13T11:07:52;99670.63;;;17.46;100.00
60918;BME280;46792;38.854;-9.384;2022-11-13T11:10:35;99671.88;;;17.40;100.00
60918;BME280;46792;38.854;-9.384;2022-11-13T11:13:20;99671.56;;;17.41;100.00
60918;BME280;46792;38.854;-9.384;2022-11-13T11:15:44;99671.88;;;17.40;100.00
60918;BME280;46792;38.854;-9.384;2022-11-13T11:21:11;99654.41;;;17.63;100.00
60918;BME280;46792;38.854;-9.384;2022-11-13T11:24:05;99662.78;;;17.67;100.00
60918;BME280;46792;38.854;-9.384;2022-11-13T11:26:34;99670.38;;;17.70;100.00
60918;BME280;46792;38.854;-9.384;2022-11-13T11:29:32;99678.44;;;17.75;100.00
60918;BME280;46792;38.854;-9.384;2022-11-13T11:32:00;99683.81;;;17.81;100.00
60918;BME280;46792;38.854;-9.384;2022-11-13T11:34:39;99683.47;;;17.82;100.00
60918;BME280;46792;38.854;-9.384;2022-11-13T11:39:58;99677.03;;;17.78;100.00
60918;BME280;46792;38.854;-9.384;2022-11-13T11:43:03;99676.00;;;17.74;100.00
60918;BME280;46792;38.854;-9.384;2022-11-13T11:47:32;99672.59;;;17.68;100.00
60918;BME280;46792;38.854;-9.384;2022-11-13T11:49:51;99679.38;;;17.71;100.00
60918;BME280;46792;38.854;-9.384;2022-11-13T11:54:44;99677.34;;;17.76;100.00
60918;BME280;46792;38.854;-9.384;2022-11-13T11:57:45;99674.19;;;17.83;100.00
60918;BME280;46792;38.854;-9.384;2022-11-13T12:00:11;99674.97;;;17.84;100.00
60918;BME280;46792;38.854;-9.384;2022-11-13T12:10:53;99667.16;;;17.91;100.00
60918;BME280;46792;38.854;-9.384;2022-11-13T12:18:36;99660.41;;;18.11;100.00
60918;BME280;46792;38.854;-9.384;2022-11-13T12:21:14;99663.97;;;18.12;100.00
60918;BME280;46792;38.854;-9.384;2022-11-13T12:23:54;99661.03;;;18.08;100.00
60918;BME280;46792;38.854;-9.384;2022-11-13T12:26:52;99654.34;;;18.14;100.00
60918;BME280;46792;38.854;-9.384;2022-11-13T12:35:21;99649.72;;;18.23;100.00
60918;BME280;46792;38.854;-9.384;2022-11-13T12:40:07;99636.09;;;18.32;100.00
60918;BME280;46792;38.854;-9.384;2022-11-13T12:42:42;99639.94;;;18.31;100.00
60918;BME280;46792;38.854;-9.384;2022-11-13T12:45:15;99639.94;;;18.31;100.00
60918;BME280;46792;38.854;-9.384;2022-11-13T12:47:38;99638.34;;;18.30;100.00
60918;BME280;46792;38.854;-9.384;2022-11-13T12:50:26;99634.16;;;18.24;100.00
60918;BME280;46792;38.854;-9.384;2022-11-13T12:53:03;99631.25;;;18.20;100.00
60918;BME280;46792;38.854;-9.384;2022-11-13T12:55:26;99633.31;;;18.23;100.00
60918;BME280;46792;38.854;-9.384;2022-11-13T12:57:46;99629.53;;;18.33;100.00
60918;BME280;46792;38.854;-9.384;2022-11-13T13:00:26;99627.94;;;18.41;100.00
60918;BME280;46792;38.854;-9.384;2022-11-13T13:11:09;99619.88;;;18.76;100.00
60918;BME280;46792;38.854;-9.384;2022-11-13T13:15:58;99622.38;;;18.55;100.00
60918;BME280;46792;38.854;-9.384;2022-11-13T13:20:39;99625.41;;;18.53;100.00
60918;BME280;46792;38.854;-9.384;2022-11-13T13:23:00;99616.97;;;18.64;100.00
60918;BME280;46792;38.854;-9.384;2022-11-13T13:25:42;99624.41;;;18.41;100.00
60918;BME280;46792;38.854;-9.384;2022-11-13T13:28:15;99618.13;;;18.40;100.00
60918;BME280;46792;38.854;-9.384;2022-11-13T13:37:02;99627.91;;;18.32;100.00
60918;BME280;46792;38.854;-9.384;2022-11-13T13:40:11;99622.69;;;18.45;100.00
60918;BME280;46792;38.854;-9.384;2022-11-13T13:48:21;99599.41;;;18.56;100.00
60918;BME280;46792;38.854;-9.384;2022-11-13T13:51:01;99603.28;;;18.64;100.00
60918;BME280;46792;38.854;-9.384;2022-11-13T13:53:39;99615.00;;;18.64;100.00
60918;BME280;46792;38.854;-9.384;2022-11-13T13:58:37;99597.47;;;18.57;100.00
60918;BME280;46792;38.854;-9.384;2022-11-13T14:00:59;99615.28;;;18.45;100.00
60918;BME280;46792;38.854;-9.384;2022-11-13T14:06:20;99609.84;;;18.22;100.00
60918;BME280;46792;38.854;-9.384;2022-11-13T14:08:39;99607.44;;;18.21;100.00
60918;BME280;46792;38.854;-9.384;2022-11-13T14:11:02;99610.13;;;18.12;100.00
60918;BME280;46792;38.854;-9.384;2022-11-13T14:13:33;99611.13;;;18.16;100.00
60918;BME280;46792;38.854;-9.384;2022-11-13T14:16:04;99603.94;;;18.29;100.00
60918;BME280;46792;38.854;-9.384;2022-11-13T14:18:23;99607.00;;;18.28;100.00
60918;BME280;46792;38.854;-9.384;2022-11-13T14:20:51;99604.91;;;18.33;100.00
60918;BME280;46792;38.854;-9.384;2022-11-13T14:23:14;99603.88;;;18.52;100.00
60918;BME280;46792;38.854;-9.384;2022-11-13T14:25:34;99596.16;;;18.54;100.00
60918;BME280;46792;38.854;-9.384;2022-11-13T14:27:53;99598.94;;;18.63;100.00
60918;BME280;46792;38.854;-9.384;2022-11-13T14:30:25;99591.72;;;18.67;100.00
60918;BME280;46792;38.854;-9.384;2022-11-13T14:32:45;99597.97;;;18.67;100.00
60918;BME280;46792;38.854;-9.384;2022-11-13T14:35:04;99587.56;;;18.78;100.00
60918;BME280;46792;38.854;-9.384;2022-11-13T14:39:46;99584.16;;;18.73;100.00
60918;BME280;46792;38.854;-9.384;2022-11-13T14:42:12;99584.00;;;18.69;100.00
60918;BME280;46792;38.854;-9.384;2022-11-13T14:44:37;99579.81;;;18.72;100.00